createdAt,value
2019-05-05T00:00:44.629Z,0.00
2019-05-05T00:01:45.082Z,0.00
2019-05-05T00:02:44.843Z,0.00
2019-05-05T00:03:44.603Z,0.00
2019-05-05T00:04:45.464Z,0.00
2019-05-05T00:05:44.473Z,0.00
2019-05-05T00:06:44.591Z,0.00
2019-05-05T00:07:44.849Z,0.00
2019-05-05T00:08:45.674Z,0.00
2019-05-05T00:09:44.986Z,0.00
2019-05-05T00:10:45.241Z,0.00
2019-05-05T00:11:44.540Z,0.00
2019-05-05T00:12:44.845Z,0.00
2019-05-05T00:13:44.821Z,0.00
2019-05-05T00:14:44.410Z,0.00
2019-05-05T00:15:45.013Z,0.00
2019-05-05T00:16:44.605Z,0.00
2019-05-05T00:17:45.033Z,0.00
2019-05-05T00:18:44.850Z,0.00
2019-05-05T00:19:45.437Z,0.00
2019-05-05T00:20:44.678Z,0.00
2019-05-05T00:21:44.668Z,0.00
2019-05-05T00:22:45.510Z,0.00
2019-05-05T00:23:45.102Z,0.00
2019-05-05T00:24:44.499Z,0.00
2019-05-05T00:25:44.796Z,0.00
2019-05-05T00:26:46.046Z,0.00
2019-05-05T00:27:45.228Z,0.00
2019-05-05T00:28:44.868Z,0.00
2019-05-05T00:29:45.363Z,0.00
2019-05-05T00:30:44.907Z,0.00
2019-05-05T00:31:45.424Z,0.00
2019-05-05T00:32:44.464Z,0.00
2019-05-05T00:33:44.977Z,0.00
2019-05-05T00:34:44.641Z,0.00
2019-05-05T00:35:45.125Z,0.00
2019-05-05T00:36:44.722Z,0.00
2019-05-05T00:37:45.043Z,0.00
2019-05-05T00:38:44.647Z,0.00
2019-05-05T00:39:45.233Z,0.00
2019-05-05T00:40:44.481Z,0.00
2019-05-05T00:41:44.983Z,0.00
2019-05-05T00:42:45.585Z,0.00
2019-05-05T00:43:45.094Z,0.00
2019-05-05T00:44:44.759Z,0.00
2019-05-05T00:45:45.113Z,0.00
2019-05-05T00:46:44.726Z,0.00
2019-05-05T00:47:45.050Z,0.00
2019-05-05T00:48:44.580Z,0.00
2019-05-05T00:49:49.084Z,0.00
2019-05-05T00:50:45.033Z,0.00
2019-05-05T00:51:44.519Z,0.00
2019-05-05T00:52:44.660Z,0.00
2019-05-05T00:53:45.002Z,0.00
2019-05-05T00:54:45.040Z,0.00
2019-05-05T00:55:44.534Z,0.00
2019-05-05T00:56:45.027Z,0.00
2019-05-05T00:57:45.327Z,0.00
2019-05-05T00:58:44.680Z,0.00
2019-05-05T00:59:45.243Z,0.00
2019-05-05T01:00:44.543Z,0.00
2019-05-05T01:01:44.854Z,0.00
2019-05-05T01:02:44.982Z,0.00
2019-05-05T01:03:44.558Z,0.00
2019-05-05T01:04:44.598Z,0.00
2019-05-05T01:05:44.898Z,0.00
2019-05-05T01:06:45.059Z,0.00
2019-05-05T01:07:44.559Z,0.00
2019-05-05T01:08:44.656Z,0.00
2019-05-05T01:09:45.088Z,0.00
2019-05-05T01:10:44.572Z,0.00
2019-05-05T01:11:44.690Z,0.00
2019-05-05T01:12:45.069Z,0.00
2019-05-05T01:13:45.534Z,0.00
2019-05-05T01:14:44.854Z,0.00
2019-05-05T01:15:44.924Z,0.00
2019-05-05T01:16:45.611Z,0.00
2019-05-05T01:17:45.118Z,0.00
2019-05-05T01:18:45.117Z,0.00
2019-05-05T01:20:44.894Z,0.00
2019-05-05T01:21:45.402Z,0.00
2019-05-05T01:22:44.887Z,0.00
2019-05-05T01:23:45.499Z,0.00
2019-05-05T01:24:45.856Z,0.00
2019-05-05T01:25:46.130Z,0.00
2019-05-05T01:26:44.730Z,0.00
2019-05-05T01:27:45.328Z,0.00
2019-05-05T01:28:44.796Z,0.00
2019-05-05T01:29:45.174Z,0.00
2019-05-05T01:30:44.626Z,0.00
2019-05-05T01:31:45.161Z,0.00
2019-05-05T01:32:44.704Z,0.00
2019-05-05T01:33:44.929Z,0.00
2019-05-05T01:34:44.636Z,0.00
2019-05-05T01:35:44.862Z,0.00
2019-05-05T01:36:45.219Z,0.00
2019-05-05T01:37:44.641Z,0.00
2019-05-05T01:38:44.826Z,0.00
2019-05-05T01:39:45.206Z,0.00
2019-05-05T01:40:44.753Z,0.00
2019-05-05T01:41:45.291Z,0.00
2019-05-05T01:42:44.747Z,0.00
2019-05-05T01:43:45.183Z,0.00
2019-05-05T01:44:44.922Z,0.00
2019-05-05T01:45:45.301Z,0.00
2019-05-05T01:46:44.669Z,0.00
2019-05-05T01:47:45.302Z,0.00
2019-05-05T01:48:44.674Z,0.00
2019-05-05T01:49:45.367Z,0.00
2019-05-05T01:50:45.278Z,0.00
2019-05-05T01:51:44.850Z,0.00
2019-05-05T01:52:45.139Z,0.00
2019-05-05T01:53:44.687Z,0.00
2019-05-05T01:54:44.824Z,0.00
2019-05-05T01:55:45.238Z,0.00
2019-05-05T01:56:44.696Z,0.00
2019-05-05T01:57:45.103Z,0.00
2019-05-05T01:58:44.703Z,0.00
2019-05-05T01:59:44.932Z,0.00
2019-05-05T02:00:45.223Z,0.00
2019-05-05T02:01:44.713Z,0.00
2019-05-05T02:02:44.986Z,0.00
2019-05-05T02:03:44.714Z,0.00
2019-05-05T02:04:44.942Z,0.00
2019-05-05T02:05:45.296Z,0.00
2019-05-05T02:06:44.722Z,0.00
2019-05-05T02:07:45.034Z,0.00
2019-05-05T02:08:45.452Z,0.00
2019-05-05T02:09:45.062Z,0.00
2019-05-05T02:10:45.310Z,0.00
2019-05-05T02:11:45.282Z,0.00
2019-05-05T02:12:44.870Z,0.00
2019-05-05T02:13:45.131Z,0.00
2019-05-05T02:14:44.743Z,0.00
2019-05-05T02:15:44.744Z,0.00
2019-05-05T02:16:45.276Z,0.00
2019-05-05T02:17:44.862Z,0.00
2019-05-05T02:18:45.103Z,0.00
2019-05-05T02:19:44.749Z,0.00
2019-05-05T02:20:45.219Z,0.00
2019-05-05T02:21:45.305Z,0.00
2019-05-05T02:22:44.766Z,0.00
2019-05-05T02:23:45.331Z,0.00
2019-05-05T02:24:44.764Z,0.00
2019-05-05T02:25:44.850Z,0.00
2019-05-05T02:26:45.575Z,0.00
2019-05-05T02:27:44.781Z,0.00
2019-05-05T02:28:45.339Z,0.00
2019-05-05T02:29:44.788Z,0.00
2019-05-05T02:30:46.521Z,0.00
2019-05-05T02:31:45.451Z,0.00
2019-05-05T02:32:45.340Z,0.00
2019-05-05T02:33:45.984Z,0.00
2019-05-05T02:34:45.651Z,0.00
2019-05-05T02:35:45.882Z,0.00
2019-05-05T02:36:45.952Z,0.00
2019-05-05T02:37:45.704Z,0.00
2019-05-05T02:38:46.251Z,0.00
2019-05-05T02:39:56.626Z,0.00
2019-05-05T02:40:45.332Z,0.00
2019-05-05T02:41:45.336Z,0.00
2019-05-05T02:42:45.621Z,0.00
2019-05-05T02:43:45.073Z,0.00
2019-05-05T02:44:45.518Z,0.00
2019-05-05T02:45:44.816Z,0.00
2019-05-05T02:46:44.860Z,0.00
2019-05-05T02:47:45.189Z,0.00
2019-05-05T02:48:45.089Z,0.00
2019-05-05T02:49:45.548Z,0.00
2019-05-05T02:50:54.935Z,0.00
2019-05-05T02:51:44.895Z,0.00
2019-05-05T02:52:44.833Z,0.00
2019-05-05T02:53:44.838Z,0.00
2019-05-05T02:54:44.840Z,0.00
2019-05-05T02:55:44.844Z,0.00
2019-05-05T02:56:44.849Z,0.00
2019-05-05T02:57:44.846Z,0.00
2019-05-05T02:58:44.853Z,0.00
2019-05-05T02:59:44.851Z,0.00
2019-05-05T03:00:44.854Z,0.00
2019-05-05T03:01:44.856Z,0.00
2019-05-05T03:02:44.858Z,0.00
2019-05-05T03:03:44.862Z,0.00
2019-05-05T03:04:44.862Z,0.00
2019-05-05T03:05:44.876Z,0.00
2019-05-05T03:06:44.864Z,0.00
2019-05-05T03:07:44.873Z,0.00
2019-05-05T03:08:44.921Z,0.00
2019-05-05T03:09:44.877Z,0.00
2019-05-05T03:10:44.882Z,0.00
2019-05-05T03:11:44.887Z,0.00
2019-05-05T03:12:44.883Z,0.00
2019-05-05T03:13:44.885Z,0.00
2019-05-05T03:14:44.886Z,0.00
2019-05-05T03:15:44.888Z,0.00
2019-05-05T03:16:44.890Z,0.00
2019-05-05T03:17:44.902Z,0.00
2019-05-05T03:18:44.897Z,4.00
2019-05-05T03:19:44.899Z,4.00
2019-05-05T03:20:44.897Z,4.00
2019-05-05T03:21:44.906Z,0.00
2019-05-05T03:22:44.907Z,0.00
2019-05-05T03:23:44.908Z,4.00
2019-05-05T03:24:44.911Z,0.00
2019-05-05T03:25:44.914Z,0.00
2019-05-05T03:26:44.918Z,4.00
2019-05-05T03:27:44.913Z,4.00
2019-05-05T03:28:44.928Z,4.00
2019-05-05T03:29:44.923Z,4.00
2019-05-05T03:30:45.671Z,8.00
2019-05-05T03:31:46.075Z,8.00
2019-05-05T03:32:45.762Z,8.00
2019-05-05T03:33:45.874Z,12.00
2019-05-05T03:34:44.935Z,12.00
2019-05-05T03:35:44.939Z,12.00
2019-05-05T03:36:44.939Z,20.00
2019-05-05T03:37:44.950Z,20.00
2019-05-05T03:38:45.043Z,24.00
2019-05-05T03:39:44.953Z,24.00
2019-05-05T03:40:44.949Z,32.00
2019-05-05T03:41:44.954Z,36.00
2019-05-05T03:42:44.963Z,40.00
2019-05-05T03:43:44.961Z,44.00
2019-05-05T03:44:44.968Z,52.00
2019-05-05T03:45:44.960Z,56.00
2019-05-05T03:46:44.969Z,64.00
2019-05-05T03:47:44.970Z,72.00
2019-05-05T03:48:44.971Z,80.00
2019-05-05T03:49:44.977Z,88.00
2019-05-05T03:50:44.974Z,100.00
2019-05-05T03:51:44.974Z,108.00
2019-05-05T03:52:44.983Z,116.00
2019-05-05T03:53:44.983Z,128.00
2019-05-05T03:54:44.985Z,144.00
2019-05-05T03:55:44.988Z,152.00
2019-05-05T03:56:44.989Z,172.00
2019-05-05T03:57:44.991Z,184.00
2019-05-05T03:58:44.997Z,200.00
2019-05-05T03:59:44.994Z,216.00
2019-05-05T04:00:45.001Z,232.00
2019-05-05T04:01:45.001Z,252.00
2019-05-05T04:02:45.012Z,272.00
2019-05-05T04:03:45.011Z,292.00
2019-05-05T04:04:45.009Z,312.00
2019-05-05T04:05:45.012Z,332.00
2019-05-05T04:06:45.016Z,352.00
2019-05-05T04:07:45.019Z,380.00
2019-05-05T04:08:45.020Z,404.00
2019-05-05T04:09:45.024Z,424.00
2019-05-05T04:10:45.039Z,452.00
2019-05-05T04:11:45.024Z,476.00
2019-05-05T04:12:45.027Z,504.00
2019-05-05T04:13:45.031Z,528.00
2019-05-05T04:14:45.031Z,560.00
2019-05-05T04:15:45.035Z,588.00
2019-05-05T04:17:45.040Z,648.00
2019-05-05T04:18:45.043Z,680.00
2019-05-05T04:19:45.045Z,708.00
2019-05-05T04:20:45.053Z,744.00
2019-05-05T04:21:45.047Z,776.00
2019-05-05T04:22:45.051Z,812.00
2019-05-05T04:23:45.057Z,848.00
2019-05-05T04:24:45.058Z,876.00
2019-05-05T04:25:45.060Z,912.00
2019-05-05T04:26:45.073Z,940.00
2019-05-05T04:27:45.067Z,972.00
2019-05-05T04:28:45.069Z,1008.00
2019-05-05T04:29:45.069Z,1044.00
2019-05-05T04:30:45.072Z,1080.00
2019-05-05T04:31:45.079Z,1112.00
2019-05-05T04:32:45.096Z,1152.00
2019-05-05T04:33:45.081Z,1192.00
2019-05-05T04:34:45.251Z,1236.00
2019-05-05T04:35:45.201Z,1280.00
2019-05-05T04:36:45.283Z,1332.00
2019-05-05T04:37:45.302Z,1388.00
2019-05-05T04:38:45.102Z,1428.00
2019-05-05T04:39:45.170Z,1480.00
2019-05-05T04:40:45.231Z,1512.00
2019-05-05T04:41:45.261Z,1540.00
2019-05-05T04:42:45.106Z,1560.00
2019-05-05T04:43:45.112Z,1584.00
2019-05-05T04:44:45.149Z,1612.00
2019-05-05T04:45:45.115Z,1644.00
2019-05-05T04:46:45.119Z,1688.00
2019-05-05T04:47:45.114Z,1732.00
2019-05-05T04:48:45.125Z,1768.00
2019-05-05T04:49:45.127Z,1632.00
2019-05-05T04:50:45.126Z,1720.00
2019-05-05T04:51:50.057Z,1816.00
2019-05-05T04:52:45.139Z,1860.00
2019-05-05T04:53:45.139Z,1872.00
2019-05-05T04:54:45.146Z,1844.00
2019-05-05T04:55:45.146Z,1772.00
2019-05-05T04:56:45.151Z,1752.00
2019-05-05T04:57:45.153Z,1664.00
2019-05-05T04:58:45.156Z,1688.00
2019-05-05T04:59:45.159Z,1740.00
2019-05-05T05:00:45.172Z,1740.00
2019-05-05T05:01:45.168Z,1892.00
2019-05-05T05:02:45.172Z,1900.00
2019-05-05T05:03:45.169Z,2124.00
2019-05-05T05:04:45.173Z,2164.00
2019-05-05T05:05:45.178Z,2076.00
2019-05-05T05:06:45.180Z,2116.00
2019-05-05T05:07:45.189Z,2404.00
2019-05-05T05:08:45.200Z,2372.00
2019-05-05T05:09:45.196Z,2588.00
2019-05-05T05:10:45.194Z,2684.00
2019-05-05T05:11:45.198Z,2712.00
2019-05-05T05:12:45.207Z,2528.00
2019-05-05T05:13:45.206Z,2752.00
2019-05-05T05:14:45.215Z,2640.00
2019-05-05T05:15:45.215Z,2620.00
2019-05-05T05:16:45.220Z,2696.00
2019-05-05T05:17:45.225Z,3248.00
2019-05-05T05:18:45.229Z,3284.00
2019-05-05T05:19:45.227Z,3392.00
2019-05-05T05:20:45.232Z,3224.00
2019-05-05T05:21:57.633Z,3608.00
2019-05-05T05:22:45.245Z,3788.00
2019-05-05T05:23:45.248Z,3976.00
2019-05-05T05:24:45.251Z,4028.00
2019-05-05T05:25:45.252Z,4068.00
2019-05-05T05:26:45.261Z,3860.00
2019-05-05T05:27:45.264Z,4160.00
2019-05-05T05:28:46.014Z,4248.00
2019-05-05T05:29:45.275Z,4316.00
2019-05-05T05:30:45.281Z,4292.00
2019-05-05T05:31:45.281Z,4080.00
2019-05-05T05:32:45.285Z,3976.00
2019-05-05T05:33:45.293Z,3980.00
2019-05-05T05:34:45.297Z,3924.00
2019-05-05T05:35:45.312Z,3844.00
2019-05-05T05:36:45.306Z,3788.00
2019-05-05T05:37:45.309Z,3772.00
2019-05-05T05:38:45.315Z,3768.00
2019-05-05T05:39:45.323Z,3868.00
2019-05-05T05:40:45.327Z,3984.00
2019-05-05T05:41:45.333Z,4208.00
2019-05-05T05:42:45.336Z,4684.00
2019-05-05T05:43:45.339Z,4856.00
2019-05-05T05:44:45.342Z,4828.00
2019-05-05T05:45:45.359Z,5232.00
2019-05-05T05:46:45.361Z,5296.00
2019-05-05T05:47:45.362Z,5484.00
2019-05-05T05:48:45.367Z,5560.00
2019-05-05T05:49:45.371Z,5612.00
2019-05-05T05:50:45.379Z,5640.00
2019-05-05T05:51:45.387Z,5676.00
2019-05-05T05:52:45.388Z,5788.00
2019-05-05T05:53:45.394Z,5952.00
2019-05-05T05:55:45.410Z,6500.00
2019-05-05T05:56:45.411Z,6552.00
2019-05-05T05:57:45.415Z,6632.00
2019-05-05T05:58:45.424Z,5684.00
2019-05-05T05:59:46.013Z,5572.00
2019-05-05T06:00:45.432Z,5572.00
2019-05-05T06:01:45.443Z,5716.00
2019-05-05T06:02:45.450Z,6196.00
2019-05-05T06:03:45.454Z,6120.00
2019-05-05T06:04:45.464Z,6520.00
2019-05-05T06:05:45.464Z,6524.00
2019-05-05T06:06:45.471Z,7144.00
2019-05-05T06:07:45.479Z,7704.00
2019-05-05T06:08:45.487Z,7788.00
2019-05-05T06:09:45.493Z,7724.00
2019-05-05T06:11:45.511Z,6560.00
2019-05-05T06:12:45.517Z,6744.00
2019-05-05T06:13:47.565Z,6796.00
2019-05-05T06:14:45.537Z,6788.00
2019-05-05T06:15:45.547Z,6928.00
2019-05-05T06:16:45.553Z,7516.00
2019-05-05T06:17:45.562Z,6676.00
2019-05-05T06:18:45.566Z,6424.00
2019-05-05T06:19:45.570Z,6296.00
2019-05-05T06:20:45.577Z,5628.00
2019-05-05T06:21:45.585Z,5056.00
2019-05-05T06:22:45.592Z,4468.00
2019-05-05T06:23:45.607Z,3980.00
2019-05-05T06:24:45.607Z,3604.00
2019-05-05T06:25:45.619Z,3356.00
2019-05-05T06:26:45.638Z,3260.00
2019-05-05T06:27:45.631Z,3316.00
2019-05-05T06:28:45.640Z,3428.00
2019-05-05T06:29:45.646Z,3560.00
2019-05-05T06:30:45.651Z,3648.00
2019-05-05T06:31:45.658Z,3664.00
2019-05-05T06:33:45.673Z,3584.00
2019-05-05T06:34:45.710Z,3556.00
2019-05-05T06:35:45.688Z,3516.00
2019-05-05T06:36:45.699Z,3464.00
2019-05-05T06:37:46.714Z,3328.00
2019-05-05T06:38:45.709Z,3220.00
2019-05-05T06:39:45.710Z,3144.00
2019-05-05T06:40:45.719Z,3096.00
2019-05-05T06:41:45.723Z,3088.00
2019-05-05T06:42:45.725Z,3112.00
2019-05-05T06:43:45.733Z,3148.00
2019-05-05T06:44:45.750Z,3200.00
2019-05-05T06:45:45.742Z,3208.00
2019-05-05T06:46:45.754Z,3188.00
2019-05-05T06:47:45.760Z,3216.00
2019-05-05T06:48:45.762Z,3284.00
2019-05-05T06:49:45.771Z,3368.00
2019-05-05T06:50:45.774Z,3416.00
2019-05-05T06:51:45.782Z,3376.00
2019-05-05T06:52:47.219Z,3268.00
2019-05-05T06:53:45.816Z,3176.00
2019-05-05T06:54:45.805Z,3144.00
2019-05-05T06:55:45.803Z,3216.00
2019-05-05T06:56:45.810Z,3372.00
2019-05-05T06:57:45.813Z,3600.00
2019-05-05T06:58:45.823Z,3920.00
2019-05-05T06:59:45.834Z,3988.00
2019-05-05T07:00:45.832Z,4176.00
2019-05-05T07:01:45.829Z,4312.00
2019-05-05T07:02:45.840Z,4492.00
2019-05-05T07:03:45.848Z,4592.00
2019-05-05T07:04:45.854Z,4596.00
2019-05-05T07:05:45.881Z,4668.00
2019-05-05T07:06:54.139Z,4804.00
2019-05-05T07:07:45.871Z,4960.00
2019-05-05T07:08:45.875Z,5076.00
2019-05-05T07:09:45.878Z,5104.00
2019-05-05T07:10:45.888Z,5284.00
2019-05-05T07:11:45.901Z,5388.00
2019-05-05T07:12:45.897Z,5368.00
2019-05-05T07:13:45.904Z,5380.00
2019-05-05T07:14:45.910Z,5520.00
2019-05-05T07:15:45.914Z,5724.00
2019-05-05T07:16:45.930Z,6036.00
2019-05-05T07:17:45.924Z,6320.00
2019-05-05T07:18:45.940Z,6352.00
2019-05-05T07:19:45.941Z,6248.00
2019-05-05T07:20:45.942Z,5976.00
2019-05-05T07:21:45.949Z,5532.00
2019-05-05T07:22:58.947Z,4736.00
2019-05-05T07:23:45.964Z,4000.00
2019-05-05T07:24:45.968Z,3528.00
2019-05-05T07:25:46.223Z,3224.00
2019-05-05T07:26:45.987Z,2924.00
2019-05-05T07:27:45.997Z,2712.00
2019-05-05T07:28:45.995Z,2576.00
2019-05-05T07:29:46.005Z,2416.00
2019-05-05T07:30:46.010Z,2356.00
2019-05-05T07:31:46.027Z,2508.00
2019-05-05T07:32:46.017Z,2704.00
2019-05-05T07:33:46.024Z,2880.00
2019-05-05T07:34:46.033Z,3088.00
2019-05-05T07:35:55.396Z,3316.00
2019-05-05T07:36:46.038Z,3556.00
2019-05-05T07:37:46.042Z,3728.00
2019-05-05T07:38:46.059Z,3944.00
2019-05-05T07:39:46.061Z,4192.00
2019-05-05T07:40:46.065Z,4432.00
2019-05-05T07:41:46.069Z,4704.00
2019-05-05T07:42:46.080Z,5004.00
2019-05-05T07:43:46.080Z,5312.00
2019-05-05T07:44:46.082Z,5540.00
2019-05-05T07:45:46.092Z,5664.00
2019-05-05T07:46:46.098Z,5724.00
2019-05-05T07:47:47.572Z,5792.00
2019-05-05T07:48:46.104Z,5708.00
2019-05-05T07:49:46.114Z,5700.00
2019-05-05T07:50:58.661Z,5616.00
2019-05-05T07:51:46.145Z,5596.00
2019-05-05T07:52:46.134Z,5592.00
2019-05-05T07:53:46.144Z,5644.00
2019-05-05T07:54:46.157Z,5720.00
2019-05-05T07:55:46.161Z,5780.00
2019-05-05T07:56:46.160Z,5884.00
2019-05-05T07:57:46.167Z,5984.00
2019-05-05T07:58:46.174Z,6100.00
2019-05-05T07:59:46.179Z,6244.00
2019-05-05T08:00:46.183Z,6396.00
2019-05-05T08:01:46.804Z,6508.00
2019-05-05T08:02:46.198Z,6708.00
2019-05-05T08:03:46.202Z,6860.00
2019-05-05T08:04:46.208Z,6920.00
2019-05-05T08:05:46.215Z,7036.00
2019-05-05T08:06:46.221Z,7140.00
2019-05-05T08:07:46.224Z,7304.00
2019-05-05T08:08:46.230Z,7388.00
2019-05-05T08:09:46.240Z,7532.00
2019-05-05T08:10:46.245Z,7640.00
2019-05-05T08:11:46.258Z,7768.00
2019-05-05T08:12:46.256Z,7836.00
2019-05-05T08:13:46.264Z,7832.00
2019-05-05T08:14:46.274Z,7892.00
2019-05-05T08:15:56.702Z,7940.00
2019-05-05T08:16:46.288Z,8324.00
2019-05-05T08:17:46.295Z,8092.00
2019-05-05T08:18:46.304Z,8132.00
2019-05-05T08:19:46.311Z,8272.00
2019-05-05T08:20:46.323Z,8592.00
2019-05-05T08:21:46.323Z,8824.00
2019-05-05T08:22:46.340Z,8920.00
2019-05-05T08:23:46.352Z,9040.00
2019-05-05T08:24:46.343Z,9228.00
2019-05-05T08:25:46.354Z,9544.00
2019-05-05T08:26:46.381Z,9796.00
2019-05-05T08:27:46.365Z,10080.00
2019-05-05T08:28:46.373Z,10244.00
2019-05-05T08:29:46.384Z,11192.00
2019-05-05T08:30:46.384Z,11340.00
2019-05-05T08:31:46.399Z,11964.00
2019-05-05T08:32:46.437Z,13416.00
2019-05-05T08:33:46.422Z,15308.00
2019-05-05T08:34:56.881Z,14752.00
2019-05-05T08:35:46.454Z,15588.00
2019-05-05T08:36:46.437Z,16736.00
2019-05-05T08:37:46.445Z,17088.00
2019-05-05T08:38:46.457Z,15176.00
2019-05-05T08:39:46.469Z,15184.00
2019-05-05T08:40:46.481Z,18976.00
2019-05-05T08:41:47.461Z,15584.00
2019-05-05T08:42:46.498Z,13584.00
2019-05-05T08:43:46.517Z,12944.00
2019-05-05T08:44:46.521Z,12816.00
2019-05-05T08:45:46.525Z,14264.00
2019-05-05T08:46:46.534Z,19488.00
2019-05-05T08:47:46.541Z,18432.00
2019-05-05T08:48:46.552Z,14620.00
2019-05-05T08:49:46.563Z,13588.00
2019-05-05T08:50:46.573Z,17440.00
2019-05-05T08:51:46.594Z,14052.00
2019-05-05T08:52:46.600Z,18432.00
2019-05-05T08:53:48.308Z,24096.00
2019-05-05T08:54:46.615Z,14188.00
2019-05-05T08:55:46.630Z,23776.00
2019-05-05T08:56:46.642Z,14452.00
2019-05-05T08:57:46.649Z,13692.00
2019-05-05T08:58:49.704Z,11612.00
2019-05-05T08:59:46.673Z,9872.00
2019-05-05T09:00:46.677Z,8996.00
2019-05-05T09:01:46.699Z,8720.00
2019-05-05T09:02:46.702Z,8624.00
2019-05-05T09:03:46.713Z,23520.00
2019-05-05T09:04:46.729Z,24480.00
2019-05-05T09:05:46.735Z,24960.00
2019-05-05T09:06:46.745Z,24672.00
2019-05-05T09:07:46.762Z,25184.00
2019-05-05T09:08:46.773Z,24256.00
2019-05-05T09:09:46.786Z,24576.00
2019-05-05T09:10:46.809Z,24640.00
2019-05-05T09:11:46.818Z,25024.00
2019-05-05T09:12:46.828Z,9768.00
2019-05-05T09:13:46.851Z,24960.00
2019-05-05T09:14:46.851Z,25216.00
2019-05-05T09:15:46.870Z,9020.00
2019-05-05T09:16:46.875Z,8200.00
2019-05-05T09:17:46.889Z,25376.00
2019-05-05T09:18:46.903Z,21664.00
2019-05-05T09:19:46.923Z,26592.00
2019-05-05T09:20:46.922Z,27328.00
2019-05-05T09:21:46.944Z,27680.00
2019-05-05T09:22:46.971Z,20704.00
2019-05-05T09:23:59.131Z,30432.00
2019-05-05T09:24:47.031Z,31456.00
2019-05-05T09:25:47.007Z,23232.00
2019-05-05T09:26:47.016Z,11112.00
2019-05-05T09:27:47.030Z,12000.00
2019-05-05T09:28:47.043Z,21952.00
2019-05-05T09:29:47.066Z,28000.00
2019-05-05T09:30:47.070Z,30912.00
2019-05-05T09:31:47.087Z,30112.00
2019-05-05T09:32:47.115Z,30144.00
2019-05-05T09:33:47.121Z,31680.00
2019-05-05T09:34:47.126Z,32064.00
2019-05-05T09:35:47.151Z,30784.00
2019-05-05T09:36:47.229Z,23360.00
2019-05-05T09:37:47.191Z,15616.00
2019-05-05T09:38:47.193Z,16304.00
2019-05-05T09:39:47.210Z,14960.00
2019-05-05T09:40:47.223Z,30144.00
2019-05-05T09:41:47.249Z,18496.00
2019-05-05T09:42:47.254Z,21440.00
2019-05-05T09:43:47.280Z,19456.00
2019-05-05T09:44:47.291Z,17056.00
2019-05-05T09:45:47.300Z,12012.00
2019-05-05T09:46:47.323Z,11788.00
2019-05-05T09:47:47.347Z,12240.00
2019-05-05T09:48:47.351Z,10832.00
2019-05-05T09:49:47.369Z,10640.00
2019-05-05T09:50:47.381Z,10968.00
2019-05-05T09:51:47.394Z,11200.00
2019-05-05T09:52:47.415Z,24832.00
2019-05-05T09:53:47.421Z,11640.00
2019-05-05T09:54:47.431Z,8804.00
2019-05-05T09:55:47.448Z,7796.00
2019-05-05T09:56:47.454Z,6804.00
2019-05-05T09:57:47.473Z,5572.00
2019-05-05T09:58:47.485Z,4492.00
2019-05-05T09:59:47.503Z,3764.00
2019-05-05T10:00:47.529Z,3176.00
2019-05-05T10:01:47.526Z,2632.00
2019-05-05T10:02:47.531Z,2224.00
2019-05-05T10:03:47.554Z,2060.00
2019-05-05T10:04:47.564Z,1984.00
2019-05-05T10:05:47.566Z,2008.00
2019-05-05T10:06:47.975Z,2060.00
2019-05-05T10:07:47.588Z,2164.00
2019-05-05T10:08:47.592Z,2336.00
2019-05-05T10:09:47.599Z,2568.00
2019-05-05T10:10:47.628Z,2796.00
2019-05-05T10:11:47.643Z,3088.00
2019-05-05T10:12:47.633Z,3400.00
2019-05-05T10:13:47.638Z,3776.00
2019-05-05T10:14:47.651Z,4216.00
2019-05-05T10:15:47.660Z,4616.00
2019-05-05T10:16:47.671Z,4976.00
2019-05-05T10:17:47.682Z,5332.00
2019-05-05T10:18:47.695Z,5728.00
2019-05-05T10:19:47.703Z,6236.00
2019-05-05T10:20:47.703Z,6484.00
2019-05-05T10:21:47.709Z,6732.00
2019-05-05T10:22:47.722Z,7052.00
2019-05-05T10:23:47.737Z,7492.00
2019-05-05T10:24:47.731Z,7968.00
2019-05-05T10:25:47.747Z,8952.00
2019-05-05T10:26:47.768Z,9580.00
2019-05-05T10:27:47.888Z,10144.00
2019-05-05T10:28:47.781Z,10908.00
2019-05-05T10:29:47.782Z,11772.00
2019-05-05T10:30:47.790Z,13604.00
2019-05-05T10:31:47.800Z,14464.00
2019-05-05T10:32:47.838Z,16896.00
2019-05-05T10:33:47.820Z,32256.00
2019-05-05T10:34:47.834Z,33664.00
2019-05-05T10:35:47.843Z,23296.00
2019-05-05T10:36:47.837Z,25632.00
2019-05-05T10:37:47.880Z,28000.00
2019-05-05T10:38:47.874Z,21664.00
2019-05-05T10:39:47.890Z,18560.00
2019-05-05T10:40:48.396Z,19968.00
2019-05-05T10:41:47.914Z,18208.00
2019-05-05T10:42:47.916Z,18752.00
2019-05-05T10:43:47.935Z,22080.00
2019-05-05T10:44:47.982Z,25440.00
2019-05-05T10:45:47.950Z,26144.00
2019-05-05T10:46:47.975Z,31392.00
2019-05-05T10:47:47.976Z,38016.00
2019-05-05T10:48:48.009Z,23776.00
2019-05-05T10:49:48.003Z,24992.00
2019-05-05T10:50:48.017Z,16312.00
2019-05-05T10:51:48.026Z,13812.00
2019-05-05T10:52:48.042Z,12072.00
2019-05-05T10:53:48.050Z,10608.00
2019-05-05T10:54:48.080Z,9844.00
2019-05-05T10:55:48.089Z,9516.00
2019-05-05T10:56:48.091Z,8500.00
2019-05-05T10:57:48.102Z,7644.00
2019-05-05T10:58:48.121Z,7224.00
2019-05-05T10:59:48.128Z,7196.00
2019-05-05T11:00:48.132Z,6936.00
2019-05-05T11:01:48.142Z,6684.00
2019-05-05T11:02:48.169Z,6392.00
2019-05-05T11:03:48.176Z,6160.00
2019-05-05T11:04:49.103Z,6176.00
2019-05-05T11:05:48.195Z,6352.00
2019-05-05T11:06:48.210Z,6652.00
2019-05-05T11:07:48.216Z,7072.00
2019-05-05T11:08:48.223Z,7368.00
2019-05-05T11:09:48.245Z,7644.00
2019-05-05T11:10:48.254Z,7880.00
2019-05-05T11:11:48.271Z,8008.00
2019-05-05T11:12:48.270Z,7880.00
2019-05-05T11:13:48.281Z,7780.00
2019-05-05T11:14:48.303Z,7780.00
2019-05-05T11:15:48.304Z,8016.00
2019-05-05T11:16:48.322Z,8360.00
2019-05-05T11:17:48.318Z,8816.00
2019-05-05T11:18:48.328Z,10540.00
2019-05-05T11:19:50.228Z,30336.00
2019-05-05T11:20:48.350Z,12532.00
2019-05-05T11:21:48.356Z,23392.00
2019-05-05T11:22:48.369Z,31552.00
2019-05-05T11:23:48.374Z,30560.00
2019-05-05T11:24:58.274Z,30816.00
2019-05-05T11:25:48.417Z,29408.00
2019-05-05T11:26:48.435Z,32224.00
2019-05-05T11:27:48.427Z,31776.00
2019-05-05T11:28:48.441Z,32000.00
2019-05-05T11:29:48.452Z,31808.00
2019-05-05T11:30:48.468Z,31520.00
2019-05-05T11:31:48.490Z,32576.00
2019-05-05T11:32:48.497Z,31872.00
2019-05-05T11:33:48.505Z,31840.00
2019-05-05T11:34:48.526Z,33344.00
2019-05-05T11:35:48.539Z,34432.00
2019-05-05T11:36:48.564Z,33696.00
2019-05-05T11:37:48.577Z,20640.00
2019-05-05T11:38:48.582Z,31392.00
2019-05-05T11:39:48.600Z,16800.00
2019-05-05T11:40:48.612Z,17312.00
2019-05-05T11:41:48.628Z,17824.00
2019-05-05T11:42:48.650Z,15668.00
2019-05-05T11:43:48.663Z,15388.00
2019-05-05T11:44:48.680Z,14448.00
2019-05-05T11:45:48.695Z,13628.00
2019-05-05T11:46:48.706Z,13436.00
2019-05-05T11:47:48.717Z,14040.00
2019-05-05T11:48:48.734Z,13144.00
2019-05-05T11:49:48.758Z,12736.00
2019-05-05T11:50:48.774Z,12552.00
2019-05-05T11:51:48.780Z,12552.00
2019-05-05T11:52:48.791Z,12428.00
2019-05-05T11:53:48.797Z,12356.00
2019-05-05T11:54:48.828Z,12124.00
2019-05-05T11:55:48.833Z,11840.00
2019-05-05T11:56:48.843Z,11848.00
2019-05-05T11:57:48.858Z,11552.00
2019-05-05T11:58:48.869Z,11644.00
2019-05-05T11:59:48.882Z,11648.00
2019-05-05T12:00:48.898Z,11560.00
2019-05-05T12:01:48.903Z,11748.00
2019-05-05T12:02:48.905Z,11840.00
2019-05-05T12:03:48.924Z,12012.00
2019-05-05T12:04:48.938Z,12428.00
2019-05-05T12:05:48.952Z,12780.00
2019-05-05T12:06:48.984Z,12824.00
2019-05-05T12:07:48.984Z,12980.00
2019-05-05T12:08:48.988Z,12952.00
2019-05-05T12:09:48.994Z,12956.00
2019-05-05T12:10:49.011Z,13252.00
2019-05-05T12:11:49.057Z,13632.00
2019-05-05T12:12:49.027Z,14320.00
2019-05-05T12:13:49.052Z,16864.00
2019-05-05T12:14:49.059Z,17216.00
2019-05-05T12:15:49.068Z,22976.00
2019-05-05T12:16:49.085Z,20768.00
2019-05-05T12:17:49.101Z,26848.00
2019-05-05T12:18:49.110Z,19680.00
2019-05-05T12:19:49.145Z,19424.00
2019-05-05T12:20:49.133Z,20800.00
2019-05-05T12:21:49.150Z,19392.00
2019-05-05T12:22:49.160Z,20160.00
2019-05-05T12:23:50.137Z,19168.00
2019-05-05T12:24:49.188Z,20352.00
2019-05-05T12:25:49.197Z,22464.00
2019-05-05T12:26:49.227Z,29856.00